Time;durP1;ratioP1;P1;durP2;ratioP2;P2;SDS_P1;SDS_P2;PMS_P1;PMS_P2;Temp;Humidity;BMP_temperature;BMP_pressure;BME280_temperature;BME280_humidity;BME280_pressure;Samples;Min_cycle;Max_cycle;Signal;HPM_P1;HPM_P2
2022/08/07 00:00:22;;;;;;;;;;;16.40;99.90;;;;;;5074526;28;20439;-70
2022/08/07 00:02:48;;;;;;;;;;;16.40;99.90;;;;;;5073017;28;19957;-70
2022/08/07 00:05:13;;;;;;;;;;;16.40;99.90;;;;;;5073727;28;19971;-71
2022/08/07 00:07:39;;;;;;;;;;;16.40;99.90;;;;;;5073224;28;19955;-70
2022/08/07 00:10:05;;;;;;;;;;;16.40;99.90;;;;;;5074179;28;19943;-71
2022/08/07 00:12:30;;;;;;;;;;;16.50;99.90;;;;;;5074073;28;19978;-71
2022/08/07 00:14:57;;;;;;;;;;;16.60;99.90;;;;;;5056540;28;19904;-70
2022/08/07 00:17:22;;;;;;;;;;;16.60;99.90;;;;;;5074315;28;19904;-71
2022/08/07 00:19:48;;;;;;;;;;;16.70;99.90;;;;;;5073960;28;19908;-71
2022/08/07 00:22:14;;;;;;;;;;;16.70;99.90;;;;;;5072821;28;19908;-71
2022/08/07 00:24:39;;;;;;;;;;;16.80;99.90;;;;;;5072693;28;19973;-71
2022/08/07 00:27:05;;;;;;;;;;;16.80;99.90;;;;;;5056318;28;19990;-71
2022/08/07 00:29:30;;;;;;;;;;;16.80;99.90;;;;;;5074198;28;19908;-71
2022/08/07 00:31:58;;;;;;;;;;;16.80;99.90;;;;;;5072683;28;19904;-70
2022/08/07 00:34:27;;;;;;;;;;;16.80;99.90;;;;;;5074148;28;19904;-71
2022/08/07 00:36:53;;;;;;;;;;;16.80;99.90;;;;;;5073392;28;19905;-71
2022/08/07 00:39:18;;;;;;;;;;;16.90;99.90;;;;;;5072369;28;19958;-70
2022/08/07 00:41:55;;;;;;;;;;;16.90;99.90;;;;;;5072527;28;19905;-71
2022/08/07 00:44:20;;;;;;;;;;;16.90;99.90;;;;;;5072500;28;20289;-70
2022/08/07 00:46:46;;;;;;;;;;;16.90;99.90;;;;;;5072418;28;19911;-70
2022/08/07 00:49:12;;;;;;;;;;;16.80;99.90;;;;;;5073672;28;19966;-71
2022/08/07 00:51:37;;;;;;;;;;;16.80;99.90;;;;;;5072427;28;19935;-71
2022/08/07 00:54:03;;;;;;;;;;;16.80;99.90;;;;;;5055681;28;19904;-71
2022/08/07 00:56:29;;;;;;;;;;;16.80;99.90;;;;;;5072306;28;19904;-71
2022/08/07 00:58:55;;;;;;;;;;;16.80;99.90;;;;;;5073483;28;19930;-71
2022/08/07 01:01:21;;;;;;;;;;;16.80;99.90;;;;;;5073563;28;19908;-70
2022/08/07 01:03:50;;;;;;;;;;;16.90;99.90;;;;;;5072581;28;20411;-70
2022/08/07 01:06:16;;;;;;;;;;;16.90;99.90;;;;;;5072172;28;20377;-70
2022/08/07 01:08:42;;;;;;;;;;;16.90;99.90;;;;;;5075347;28;20418;-71
2022/08/07 01:11:08;;;;;;;;;;;17.00;99.90;;;;;;5077859;28;19904;-71
2022/08/07 01:13:34;;;;;;;;;;;17.10;99.90;;;;;;5059535;28;19911;-71
2022/08/07 01:15:59;;;;;;;;;;;17.10;99.90;;;;;;5077438;28;19911;-71
2022/08/07 01:18:27;;;;;;;;;;;17.10;99.90;;;;;;5076402;28;19904;-70
2022/08/07 01:21:11;;;;;;;;;;;17.10;99.90;;;;;;5077400;28;19927;-70
2022/08/07 01:23:39;;;;;;;;;;;17.10;99.90;;;;;;5076111;28;19939;-71
2022/08/07 01:26:05;;;;;;;;;;;17.10;99.90;;;;;;5075888;28;20269;-70
2022/08/07 01:28:31;;;;;;;;;;;17.20;99.90;;;;;;5075985;28;19908;-70
2022/08/07 01:30:57;;;;;;;;;;;17.10;99.90;;;;;;5076184;28;20475;-70
2022/08/07 01:33:23;;;;;;;;;;;17.10;99.90;;;;;;5076259;28;19999;-70
2022/08/07 01:35:49;;;;;;;;;;;17.20;99.90;;;;;;5077046;28;19904;-71
2022/08/07 01:38:16;;;;;;;;;;;17.10;99.90;;;;;;5076090;28;19904;-71
2022/08/07 01:40:42;;;;;;;;;;;17.20;99.90;;;;;;5076925;28;19912;-71
2022/08/07 01:43:07;;;;;;;;;;;17.20;99.90;;;;;;5075696;28;19999;-70
2022/08/07 01:45:34;;;;;;;;;;;17.20;99.90;;;;;;5076102;28;19956;-69
2022/08/07 01:47:59;;;;;;;;;;;17.20;99.90;;;;;;5058946;28;19927;-68
2022/08/07 01:50:25;;;;;;;;;;;17.20;99.90;;;;;;5077108;28;20375;-68
2022/08/07 01:52:52;;;;;;;;;;;17.20;99.90;;;;;;5075533;28;19965;-69
2022/08/07 01:55:19;;;;;;;;;;;17.20;99.90;;;;;;5075418;28;19927;-69
2022/08/07 01:57:46;;;;;;;;;;;17.20;99.90;;;;;;5076676;28;20317;-68
2022/08/07 02:00:12;;;;;;;;;;;17.20;99.90;;;;;;5076571;28;19957;-68
2022/08/07 02:02:45;;;;;;;;;;;17.20;99.90;;;;;;5076565;28;19939;-68
2022/08/07 02:05:12;;;;;;;;;;;17.10;99.90;;;;;;5074998;28;19916;-69
2022/08/07 02:07:48;;;;;;;;;;;17.10;99.90;;;;;;5075530;28;20349;-69
2022/08/07 02:10:15;;;;;;;;;;;17.10;99.90;;;;;;5076779;28;19987;-68
2022/08/07 02:12:42;;;;;;;;;;;17.10;99.90;;;;;;5075223;28;19908;-68
2022/08/07 02:15:09;;;;;;;;;;;17.10;99.90;;;;;;5075324;28;20296;-69
2022/08/07 02:17:36;;;;;;;;;;;17.10;99.90;;;;;;5075380;28;20039;-68
2022/08/07 02:20:03;;;;;;;;;;;17.10;99.90;;;;;;5074702;28;20265;-68
2022/08/07 02:22:29;;;;;;;;;;;17.10;99.90;;;;;;5058243;28;20365;-69
2022/08/07 02:24:56;;;;;;;;;;;17.10;99.90;;;;;;5076518;28;19904;-69
2022/08/07 02:27:22;;;;;;;;;;;17.00;99.90;;;;;;5074846;28;19993;-69
2022/08/07 02:29:49;;;;;;;;;;;17.00;99.90;;;;;;5075134;28;19905;-69
2022/08/07 02:32:16;;;;;;;;;;;17.00;99.90;;;;;;5076357;28;20421;-69
2022/08/07 02:34:42;;;;;;;;;;;16.90;99.90;;;;;;5076586;28;20275;-69
2022/08/07 02:37:09;;;;;;;;;;;16.90;99.90;;;;;;5074934;28;19936;-69
2022/08/07 02:39:35;;;;;;;;;;;16.90;99.90;;;;;;5076470;28;19908;-69
2022/08/07 02:42:01;;;;;;;;;;;16.90;99.90;;;;;;5075892;28;20387;-69
2022/08/07 02:44:28;;;;;;;;;;;16.90;99.90;;;;;;5074867;28;19950;-69
2022/08/07 02:46:55;;;;;;;;;;;16.80;99.90;;;;;;5075754;28;19904;-69
2022/08/07 02:49:20;;;;;;;;;;;16.90;99.90;;;;;;5074484;28;19957;-69
2022/08/07 02:51:46;;;;;;;;;;;16.90;99.90;;;;;;5058043;28;19905;-69
2022/08/07 02:54:13;;;;;;;;;;;16.90;99.90;;;;;;5076487;28;19905;-69
2022/08/07 02:56:40;;;;;;;;;;;16.90;99.90;;;;;;5075525;28;19905;-69
2022/08/07 02:59:08;;;;;;;;;;;16.90;99.90;;;;;;5074203;28;19962;-69
2022/08/07 03:01:35;;;;;;;;;;;16.90;99.90;;;;;;5057550;28;19908;-69
2022/08/07 03:04:01;;;;;;;;;;;16.90;99.90;;;;;;5074172;28;20424;-69
2022/08/07 03:06:28;;;;;;;;;;;16.80;99.90;;;;;;5074278;28;20003;-69
2022/08/07 03:08:54;;;;;;;;;;;16.80;99.90;;;;;;5075399;28;19940;-69
2022/08/07 03:11:20;;;;;;;;;;;16.70;99.90;;;;;;5074084;28;19905;-69
2022/08/07 03:13:46;;;;;;;;;;;16.70;99.90;;;;;;5074026;28;19973;-69
2022/08/07 03:16:12;;;;;;;;;;;16.70;99.90;;;;;;5074258;28;19911;-69
2022/08/07 03:18:37;;;;;;;;;;;16.60;99.90;;;;;;5073846;28;19904;-69
2022/08/07 03:21:03;;;;;;;;;;;16.60;99.90;;;;;;5075293;28;19905;-71
2022/08/07 03:23:30;;;;;;;;;;;16.60;99.90;;;;;;5057665;28;19905;-72
2022/08/07 03:25:56;;;;;;;;;;;16.50;99.90;;;;;;5073809;28;19904;-72
2022/08/07 03:28:21;;;;;;;;;;;16.50;99.90;;;;;;5056965;28;19908;-71
2022/08/07 03:30:48;;;;;;;;;;;16.50;99.90;;;;;;5056574;28;19957;-71
2022/08/07 03:33:15;;;;;;;;;;;16.60;99.90;;;;;;5075434;28;19904;-71
2022/08/07 03:35:41;;;;;;;;;;;16.60;99.90;;;;;;5073496;28;19991;-71
2022/08/07 03:38:08;;;;;;;;;;;16.60;99.90;;;;;;5073509;28;19992;-71
2022/08/07 03:40:34;;;;;;;;;;;16.60;99.90;;;;;;5056775;28;19915;-71
2022/08/07 03:43:00;;;;;;;;;;;16.60;99.90;;;;;;5074638;28;19904;-71
2022/08/07 03:45:27;;;;;;;;;;;16.60;99.90;;;;;;5056678;28;19905;-71
2022/08/07 03:47:52;;;;;;;;;;;16.60;99.90;;;;;;5074301;28;19911;-72
2022/08/07 03:50:18;;;;;;;;;;;16.60;99.90;;;;;;5073266;28;20349;-71
2022/08/07 03:52:45;;;;;;;;;;;16.60;99.90;;;;;;5074547;28;19911;-71
2022/08/07 03:55:11;;;;;;;;;;;16.70;99.90;;;;;;5073035;28;20368;-71
2022/08/07 03:57:37;;;;;;;;;;;16.70;99.90;;;;;;5073171;28;19948;-71
2022/08/07 04:00:03;;;;;;;;;;;16.70;99.90;;;;;;5074341;28;19909;-71
2022/08/07 04:02:28;;;;;;;;;;;16.70;99.90;;;;;;5073161;28;20000;-71
2022/08/07 04:04:54;;;;;;;;;;;16.70;99.90;;;;;;5073002;28;20372;-72
2022/08/07 04:07:20;;;;;;;;;;;16.70;99.90;;;;;;5074318;28;19904;-72
2022/08/07 04:09:46;;;;;;;;;;;16.70;99.90;;;;;;5075043;28;19904;-72
2022/08/07 04:12:12;;;;;;;;;;;16.80;99.90;;;;;;5073481;28;19958;-71
2022/08/07 04:14:38;;;;;;;;;;;16.70;99.90;;;;;;5074942;28;19911;-72
2022/08/07 04:17:03;;;;;;;;;;;16.70;99.90;;;;;;5074677;28;19951;-72
2022/08/07 04:19:29;;;;;;;;;;;16.80;99.90;;;;;;5074860;28;19951;-72
2022/08/07 04:21:54;;;;;;;;;;;16.80;99.90;;;;;;5074317;28;19927;-72
2022/08/07 04:24:20;;;;;;;;;;;16.80;99.90;;;;;;5075182;28;19947;-72
2022/08/07 04:26:45;;;;;;;;;;;16.70;99.90;;;;;;5073975;28;19912;-71
2022/08/07 04:29:11;;;;;;;;;;;16.70;99.90;;;;;;5056262;28;19909;-72
2022/08/07 04:31:38;;;;;;;;;;;16.70;99.90;;;;;;5074245;28;19928;-72
2022/08/07 04:34:03;;;;;;;;;;;16.70;99.90;;;;;;5072672;28;19905;-72
2022/08/07 04:36:29;;;;;;;;;;;16.80;99.90;;;;;;5073817;28;20242;-71
2022/08/07 04:38:55;;;;;;;;;;;16.80;99.90;;;;;;5074060;28;19912;-72
2022/08/07 04:41:20;;;;;;;;;;;16.80;99.90;;;;;;5072605;28;19978;-72
2022/08/07 04:43:46;;;;;;;;;;;16.80;99.90;;;;;;5072863;28;19957;-73
2022/08/07 04:46:30;;;;;;;;;;;16.70;99.90;;;;;;5055787;28;19946;-71
2022/08/07 04:48:59;;;;;;;;;;;16.80;99.90;;;;;;5073736;28;19904;-72
2022/08/07 04:51:34;;;;;;;;;;;16.70;99.90;;;;;;5072523;28;19998;-72
2022/08/07 04:54:02;;;;;;;;;;;16.80;99.90;;;;;;5072542;28;19904;-72
2022/08/07 04:56:41;;;;;;;;;;;16.80;99.90;;;;;;5073679;28;20487;-72
2022/08/07 04:59:10;;;;;;;;;;;16.90;99.90;;;;;;5073586;28;19959;-72
2022/08/07 05:01:55;;;;;;;;;;;16.80;99.90;;;;;;5072805;28;19905;-72
2022/08/07 05:04:25;;;;;;;;;;;16.90;99.90;;;;;;5045323;28;19905;-72
2022/08/07 05:06:51;;;;;;;;;;;16.90;99.90;;;;;;5055763;28;20007;-72
2022/08/07 05:09:16;;;;;;;;;;;16.90;99.90;;;;;;5072366;28;19955;-72
2022/08/07 05:11:45;;;;;;;;;;;16.90;99.90;;;;;;5072671;28;19987;-72
2022/08/07 05:14:24;;;;;;;;;;;16.90;99.90;;;;;;5073540;28;20403;-72
2022/08/07 05:16:51;;;;;;;;;;;16.90;99.90;;;;;;5072527;28;19995;-71
2022/08/07 05:19:18;;;;;;;;;;;16.90;99.90;;;;;;5055470;28;20315;-72
2022/08/07 05:21:47;;;;;;;;;;;16.90;99.90;;;;;;5072556;28;19939;-72
2022/08/07 05:24:15;;;;;;;;;;;17.00;99.90;;;;;;5073493;28;19995;-72
2022/08/07 05:26:42;;;;;;;;;;;17.00;99.90;;;;;;5072126;28;19908;-72
2022/08/07 05:29:08;;;;;;;;;;;17.00;99.90;;;;;;5073576;28;19905;-72
2022/08/07 05:31:39;;;;;;;;;;;17.00;99.90;;;;;;5055471;28;20389;-72
2022/08/07 05:34:12;;;;;;;;;;;16.90;99.90;;;;;;5072064;28;19988;-72
2022/08/07 05:36:40;;;;;;;;;;;16.90;99.90;;;;;;5073300;28;19970;-72
2022/08/07 05:39:06;;;;;;;;;;;16.90;99.90;;;;;;5072076;28;19995;-72
2022/08/07 05:41:32;;;;;;;;;;;16.90;99.90;;;;;;5072353;28;19969;-72
2022/08/07 05:43:58;;;;;;;;;;;16.90;99.90;;;;;;5073298;28;20420;-72
2022/08/07 05:46:24;;;;;;;;;;;16.90;99.90;;;;;;5055117;28;19904;-72
2022/08/07 05:48:50;;;;;;;;;;;16.90;99.90;;;;;;5073088;28;20353;-71
2022/08/07 05:51:17;;;;;;;;;;;16.90;99.90;;;;;;5068203;28;19911;-72
2022/08/07 05:53:43;;;;;;;;;;;16.90;99.90;;;;;;5076257;28;20324;-72
2022/08/07 05:56:08;;;;;;;;;;;16.90;99.90;;;;;;5077646;28;19904;-72
2022/08/07 05:58:34;;;;;;;;;;;16.90;99.90;;;;;;5092469;28;19954;-71
2022/08/07 06:01:00;;;;;;;;;;;16.90;99.90;;;;;;5097189;28;20009;-72
2022/08/07 06:03:27;;;;;;;;;;;17.00;99.90;;;;;;5096851;28;19903;-70
2022/08/07 06:05:53;;;;;;;;;;;17.00;99.90;;;;;;5096472;28;19912;-70
2022/08/07 06:08:19;;;;;;;;;;;17.00;99.90;;;;;;5076769;28;20428;-70
2022/08/07 06:10:46;;;;;;;;;;;17.10;99.90;;;;;;5075675;28;19966;-70
2022/08/07 06:13:12;;;;;;;;;;;17.10;99.90;;;;;;5057874;28;20383;-70
2022/08/07 06:15:39;;;;;;;;;;;17.10;99.90;;;;;;5092480;28;19942;-70
2022/08/07 06:18:05;;;;;;;;;;;17.20;99.90;;;;;;5096076;28;19911;-70
2022/08/07 06:20:33;;;;;;;;;;;17.20;99.90;;;;;;5094706;28;19915;-70
2022/08/07 06:22:59;;;;;;;;;;;17.30;99.90;;;;;;5078638;28;19919;-71
2022/08/07 06:25:25;;;;;;;;;;;17.40;99.90;;;;;;5095421;28;19911;-71
2022/08/07 06:27:51;;;;;;;;;;;17.40;99.90;;;;;;5096756;28;19908;-71
2022/08/07 06:30:16;;;;;;;;;;;17.50;99.90;;;;;;5095007;28;19908;-70
2022/08/07 06:32:42;;;;;;;;;;;17.60;99.90;;;;;;5078204;28;19911;-71
2022/08/07 06:35:07;;;;;;;;;;;17.60;99.90;;;;;;5095455;28;19957;-71
2022/08/07 06:37:33;;;;;;;;;;;17.70;99.90;;;;;;5095927;28;19908;-71
2022/08/07 06:39:59;;;;;;;;;;;17.80;99.90;;;;;;5077033;28;20384;-70
2022/08/07 06:42:35;;;;;;;;;;;17.90;99.90;;;;;;5081843;28;20438;-71
2022/08/07 06:45:01;;;;;;;;;;;17.90;99.90;;;;;;5078139;28;20902;-70
2022/08/07 06:47:27;;;;;;;;;;;18.00;99.90;;;;;;5095823;28;19904;-71
2022/08/07 06:49:53;;;;;;;;;;;18.10;99.90;;;;;;5077282;28;19911;-70
2022/08/07 06:52:20;;;;;;;;;;;18.10;99.90;;;;;;5075526;28;19942;-70
2022/08/07 06:54:48;;;;;;;;;;;18.10;99.90;;;;;;5075721;28;19911;-71
2022/08/07 06:57:14;;;;;;;;;;;18.10;99.90;;;;;;5076068;28;19912;-71
2022/08/07 06:59:40;;;;;;;;;;;18.10;99.90;;;;;;5077753;28;19908;-71
2022/08/07 07:02:07;;;;;;;;;;;18.20;99.90;;;;;;5076498;28;20368;-71
2022/08/07 07:04:33;;;;;;;;;;;18.20;99.90;;;;;;5076822;28;19960;-71
2022/08/07 07:07:00;;;;;;;;;;;18.30;99.90;;;;;;5094656;28;19912;-71
2022/08/07 07:09:27;;;;;;;;;;;18.40;99.90;;;;;;5096125;28;20349;-71
2022/08/07 07:11:58;;;;;;;;;;;18.50;99.90;;;;;;5075816;28;19957;-71
2022/08/07 07:14:26;;;;;;;;;;;18.60;99.90;;;;;;5095265;28;19937;-72
2022/08/07 07:16:55;;;;;;;;;;;18.60;99.90;;;;;;5094748;28;19915;-71
2022/08/07 07:19:26;;;;;;;;;;;18.70;99.90;;;;;;5076852;28;19998;-71
2022/08/07 07:21:53;;;;;;;;;;;18.80;99.90;;;;;;5096014;28;19992;-71
2022/08/07 07:24:19;;;;;;;;;;;19.00;99.90;;;;;;5093189;28;19904;-71
2022/08/07 07:26:46;;;;;;;;;;;19.10;99.90;;;;;;5076035;28;19904;-71
2022/08/07 07:29:13;;;;;;;;;;;19.30;99.90;;;;;;5076059;28;19908;-71
2022/08/07 07:31:42;;;;;;;;;;;19.40;99.90;;;;;;5095329;28;19911;-71
2022/08/07 07:34:10;;;;;;;;;;;19.40;99.90;;;;;;5095150;28;19904;-72
2022/08/07 07:36:37;;;;;;;;;;;19.50;99.90;;;;;;5076889;28;20003;-71
2022/08/07 07:39:04;;;;;;;;;;;19.50;99.90;;;;;;5076976;28;19944;-72
2022/08/07 07:41:30;;;;;;;;;;;19.50;99.90;;;;;;5094977;28;19911;-72
2022/08/07 07:43:57;;;;;;;;;;;19.50;99.90;;;;;;5076787;28;19911;-72
2022/08/07 07:46:24;;;;;;;;;;;19.50;99.90;;;;;;5077552;28;20264;-74
2022/08/07 07:48:50;;;;;;;;;;;19.50;99.90;;;;;;5076674;28;20356;-74
2022/08/07 07:51:17;;;;;;;;;;;19.60;99.90;;;;;;5076934;28;19911;-74
2022/08/07 07:53:44;;;;;;;;;;;19.70;99.90;;;;;;5094855;28;20033;-74
2022/08/07 07:56:11;;;;;;;;;;;19.70;99.90;;;;;;5076807;28;20318;-74
2022/08/07 07:58:37;;;;;;;;;;;19.70;99.90;;;;;;5094927;28;19904;-74
2022/08/07 08:01:04;;;;;;;;;;;19.70;99.90;;;;;;5076516;28;19904;-74
2022/08/07 08:03:30;;;;;;;;;;;19.70;99.90;;;;;;5094949;28;19904;-74
2022/08/07 08:05:56;;;;;;;;;;;19.80;99.90;;;;;;5076214;28;19912;-74
2022/08/07 08:08:23;;;;;;;;;;;19.90;99.90;;;;;;5076389;28;20451;-74
2022/08/07 08:10:48;;;;;;;;;;;19.90;99.90;;;;;;5076327;28;19911;-74
2022/08/07 08:13:14;;;;;;;;;;;19.90;99.90;;;;;;5076261;28;19990;-74
2022/08/07 08:15:41;;;;;;;;;;;20.00;99.90;;;;;;5076193;28;19908;-74
2022/08/07 08:18:12;;;;;;;;;;;20.10;99.90;;;;;;5075992;28;19907;-75
2022/08/07 08:20:39;;;;;;;;;;;20.30;99.90;;;;;;5076116;28;19908;-74
2022/08/07 08:28:38;;;;;;;;;;;20.60;99.90;;;;;;5094288;28;20074;-75
2022/08/07 08:31:05;;;;;;;;;;;20.70;99.90;;;;;;5094440;28;19943;-76
2022/08/07 08:33:31;;;;;;;;;;;20.80;99.90;;;;;;5094407;28;19904;-76
2022/08/07 08:35:57;;;;;;;;;;;20.90;99.90;;;;;;5094059;28;19961;-75
2022/08/07 08:38:26;;;;;;;;;;;20.90;99.90;;;;;;5076831;28;20318;-76
2022/08/07 08:40:59;;;;;;;;;;;20.90;99.90;;;;;;5075877;28;19957;-76
2022/08/07 08:43:31;;;;;;;;;;;21.00;99.90;;;;;;5094290;28;19955;-75
2022/08/07 08:46:01;;;;;;;;;;;21.00;99.90;;;;;;5075833;28;19904;-75
2022/08/07 08:48:31;;;;;;;;;;;21.10;99.90;;;;;;5075828;28;19908;-75
2022/08/07 08:51:03;;;;;;;;;;;21.20;99.90;;;;;;5077015;28;20245;-75
2022/08/07 08:53:37;;;;;;;;;;;21.20;99.90;;;;;;5076070;28;19903;-75
2022/08/07 08:56:22;;;;;;;;;;;21.20;99.90;;;;;;5094167;28;20279;-75
2022/08/07 08:58:59;;;;;;;;;;;21.30;99.90;;;;;;5075800;28;19992;-75
2022/08/07 09:01:27;;;;;;;;;;;21.50;99.90;;;;;;5076120;28;19953;-75
2022/08/07 09:04:13;;;;;;;;;;;21.60;99.90;;;;;;5094442;28;19911;-75
2022/08/07 09:06:51;;;;;;;;;;;21.80;99.90;;;;;;5075892;28;19966;-75
2022/08/07 09:09:23;;;;;;;;;;;21.90;99.90;;;;;;5075717;28;19904;-76
2022/08/07 09:11:55;;;;;;;;;;;22.10;99.90;;;;;;5076003;28;20313;-75
2022/08/07 09:14:32;;;;;;;;;;;22.20;99.90;;;;;;5093878;28;19911;-75
2022/08/07 09:17:09;;;;;;;;;;;22.30;99.90;;;;;;5093949;28;19904;-75
2022/08/07 09:19:44;;;;;;;;;;;22.30;99.90;;;;;;5094187;28;19912;-75
2022/08/07 09:22:19;;;;;;;;;;;22.40;99.90;;;;;;5094935;28;19904;-76
2022/08/07 09:24:51;;;;;;;;;;;22.50;99.90;;;;;;5076967;28;19912;-75
2022/08/07 09:27:31;;;;;;;;;;;22.50;99.90;;;;;;5095038;28;19939;-76
2022/08/07 09:30:05;;;;;;;;;;;22.60;99.90;;;;;;5082058;28;19973;-75
2022/08/07 09:32:49;;;;;;;;;;;22.70;99.90;;;;;;5100194;28;19911;-76
2022/08/07 09:35:27;;;;;;;;;;;22.70;99.90;;;;;;5080176;28;20360;-76
2022/08/07 09:37:57;;;;;;;;;;;22.80;99.90;;;;;;5097766;28;19900;-76
2022/08/07 09:40:25;;;;;;;;;;;23.00;99.90;;;;;;5097893;28;19960;-76
2022/08/07 09:43:09;;;;;;;;;;;23.00;99.90;;;;;;5097245;28;19904;-76
2022/08/07 09:45:53;;;;;;;;;;;23.20;99.90;;;;;;5097472;28;19904;-76
2022/08/07 09:48:31;;;;;;;;;;;23.20;99.30;;;;;;5097539;28;19904;-75
2022/08/07 09:51:12;;;;;;;;;;;23.40;99.90;;;;;;5079027;28;19904;-76
2022/08/07 09:53:39;;;;;;;;;;;23.50;99.70;;;;;;5079008;28;19934;-75
2022/08/07 09:56:12;;;;;;;;;;;23.60;99.40;;;;;;5096977;28;19904;-75
2022/08/07 09:58:50;;;;;;;;;;;23.70;98.60;;;;;;5097567;28;19904;-74
2022/08/07 10:01:34;;;;;;;;;;;23.80;97.70;;;;;;5078406;28;20348;-75
2022/08/07 10:04:19;;;;;;;;;;;23.70;97.80;;;;;;5096531;28;19990;-75
2022/08/07 10:07:03;;;;;;;;;;;23.60;97.50;;;;;;5078594;28;19950;-76
2022/08/07 10:09:37;;;;;;;;;;;23.70;98.50;;;;;;5097209;28;19904;-75
2022/08/07 10:12:14;;;;;;;;;;;23.80;97.70;;;;;;5097096;28;19954;-75
2022/08/07 10:14:40;;;;;;;;;;;23.70;97.70;;;;;;5097057;28;19910;-74
2022/08/07 10:17:23;;;;;;;;;;;23.60;96.90;;;;;;5078470;28;19904;-75
2022/08/07 10:20:08;;;;;;;;;;;23.40;97.60;;;;;;5078496;28;19907;-75
2022/08/07 10:22:39;;;;;;;;;;;23.40;96.40;;;;;;5096921;28;19904;-75
2022/08/07 10:25:12;;;;;;;;;;;23.20;97.00;;;;;;5078292;28;20015;-75
2022/08/07 10:28:07;;;;;;;;;;;23.00;97.70;;;;;;5078666;28;19908;-75
2022/08/07 10:30:41;;;;;;;;;;;22.90;97.20;;;;;;5079212;28;19911;-75
2022/08/07 10:33:10;;;;;;;;;;;22.80;97.70;;;;;;5078271;28;19904;-75
2022/08/07 10:35:54;;;;;;;;;;;22.80;97.30;;;;;;5076804;28;19904;-75
2022/08/07 10:38:29;;;;;;;;;;;22.70;97.50;;;;;;5087578;28;19965;-75
2022/08/07 10:40:59;;;;;;;;;;;22.60;97.80;;;;;;5078940;28;19908;-74
2022/08/07 10:43:28;;;;;;;;;;;22.50;97.80;;;;;;5077164;28;19912;-76
2022/08/07 10:45:56;;;;;;;;;;;22.40;98.70;;;;;;5095933;28;19904;-75
2022/08/07 10:48:34;;;;;;;;;;;22.40;98.40;;;;;;5090516;28;19919;-75
2022/08/07 10:51:14;;;;;;;;;;;22.30;98.30;;;;;;5069131;28;19915;-76
2022/08/07 10:54:03;;;;;;;;;;;22.30;98.40;;;;;;5060804;28;19908;-72
2022/08/07 10:56:44;;;;;;;;;;;22.20;98.50;;;;;;5039447;28;20042;-75
2022/08/07 10:59:18;;;;;;;;;;;22.20;99.20;;;;;;5057919;28;19971;-74
2022/08/07 11:01:48;;;;;;;;;;;22.10;98.60;;;;;;5075581;28;19942;-75
2022/08/07 11:04:33;;;;;;;;;;;22.20;99.40;;;;;;5057673;28;19904;-75
2022/08/07 11:07:17;;;;;;;;;;;22.20;99.10;;;;;;5057822;28;19923;-75
2022/08/07 11:09:46;;;;;;;;;;;22.20;98.80;;;;;;5075671;28;19947;-74
2022/08/07 11:12:15;;;;;;;;;;;22.20;99.60;;;;;;5057395;28;19932;-75
2022/08/07 11:14:45;;;;;;;;;;;22.30;99.00;;;;;;5075437;28;19908;-72
2022/08/07 11:17:18;;;;;;;;;;;22.30;99.30;;;;;;5075217;28;20376;-72
2022/08/07 11:19:55;;;;;;;;;;;22.20;99.20;;;;;;5057434;28;20280;-72
2022/08/07 11:22:26;;;;;;;;;;;22.10;98.70;;;;;;5057538;28;20314;-72
2022/08/07 11:24:58;;;;;;;;;;;22.10;99.00;;;;;;5075212;28;19908;-72
2022/08/07 11:27:30;;;;;;;;;;;22.00;99.20;;;;;;5056999;28;19912;-72
2022/08/07 11:30:03;;;;;;;;;;;22.00;99.00;;;;;;5056975;28;20357;-72
2022/08/07 11:32:48;;;;;;;;;;;21.90;99.20;;;;;;5074910;28;19955;-72
2022/08/07 11:35:22;;;;;;;;;;;21.90;99.10;;;;;;5056365;28;19904;-72
2022/08/07 11:37:49;;;;;;;;;;;21.80;99.40;;;;;;5057012;28;20262;-72
2022/08/07 11:40:32;;;;;;;;;;;21.70;99.40;;;;;;5074768;28;20310;-72
2022/08/07 11:43:16;;;;;;;;;;;21.70;99.40;;;;;;5074793;28;19904;-72
2022/08/07 11:45:54;;;;;;;;;;;21.60;99.50;;;;;;5056734;28;19908;-72
2022/08/07 11:48:26;;;;;;;;;;;21.70;99.90;;;;;;5056763;28;19905;-72
2022/08/07 11:50:58;;;;;;;;;;;21.60;99.30;;;;;;5074404;28;19915;-72
2022/08/07 11:53:37;;;;;;;;;;;21.60;99.70;;;;;;5056900;28;19904;-73
2022/08/07 11:56:14;;;;;;;;;;;21.60;99.90;;;;;;5074628;28;19904;-71
2022/08/07 11:58:40;;;;;;;;;;;21.70;99.60;;;;;;5074798;28;20272;-72
2022/08/07 12:01:24;;;;;;;;;;;21.70;98.90;;;;;;5074594;28;19908;-72
2022/08/07 12:04:07;;;;;;;;;;;21.80;99.10;;;;;;5074372;28;19930;-72
2022/08/07 12:07:05;;;;;;;;;;;21.80;99.20;;;;;;5057009;28;20003;-72
2022/08/07 12:09:50;;;;;;;;;;;21.90;99.50;;;;;;5034095;28;20345;-72
2022/08/07 12:12:27;;;;;;;;;;;22.00;99.40;;;;;;5055702;28;19914;-72
2022/08/07 12:14:56;;;;;;;;;;;22.10;98.70;;;;;;5074231;28;19909;-72
2022/08/07 12:17:23;;;;;;;;;;;22.10;98.90;;;;;;5074130;28;20023;-72
2022/08/07 12:19:53;;;;;;;;;;;22.20;99.00;;;;;;5056264;28;19955;-72
2022/08/07 12:22:29;;;;;;;;;;;22.30;98.40;;;;;;5074607;28;19904;-72
2022/08/07 12:27:47;;;;;;;;;;;22.40;97.90;;;;;;5074426;28;19915;-74
2022/08/07 12:30:12;;;;;;;;;;;22.50;98.30;;;;;;5056113;28;19931;-74
2022/08/07 12:32:43;;;;;;;;;;;22.50;97.80;;;;;;5056153;28;20352;-75
2022/08/07 12:35:11;;;;;;;;;;;22.60;97.30;;;;;;5074229;28;19911;-76
2022/08/07 12:37:38;;;;;;;;;;;22.70;98.30;;;;;;5055925;28;20371;-74
2022/08/07 12:40:05;;;;;;;;;;;22.80;97.20;;;;;;5073870;28;19908;-72
2022/08/07 12:42:32;;;;;;;;;;;22.80;97.30;;;;;;5074325;28;20316;-74
2022/08/07 12:44:59;;;;;;;;;;;22.80;97.50;;;;;;5056304;28;19904;-74
2022/08/07 12:47:43;;;;;;;;;;;22.70;97.30;;;;;;5073739;28;19987;-74
2022/08/07 12:50:17;;;;;;;;;;;22.60;97.40;;;;;;5056083;28;20309;-74
2022/08/07 12:53:02;;;;;;;;;;;22.40;97.40;;;;;;5074122;28;19904;-73
2022/08/07 12:55:33;;;;;;;;;;;22.20;97.80;;;;;;5073956;28;19904;-74
2022/08/07 12:58:00;;;;;;;;;;;22.20;98.40;;;;;;5056074;28;20371;-74
2022/08/07 13:00:30;;;;;;;;;;;22.20;97.90;;;;;;5055667;28;19909;-74
2022/08/07 13:03:00;;;;;;;;;;;22.30;97.90;;;;;;5056138;28;19912;-74
2022/08/07 13:05:37;;;;;;;;;;;22.30;97.60;;;;;;5059654;28;19912;-73
2022/08/07 13:08:22;;;;;;;;;;;22.20;97.70;;;;;;5078120;28;19912;-73
2022/08/07 13:10:50;;;;;;;;;;;22.00;97.40;;;;;;5059909;28;20036;-73
2022/08/07 13:13:16;;;;;;;;;;;21.90;98.00;;;;;;5060136;28;19904;-73
2022/08/07 13:15:49;;;;;;;;;;;21.80;98.00;;;;;;5059621;28;19931;-75
2022/08/07 13:18:38;;;;;;;;;;;21.80;98.10;;;;;;5077664;28;19904;-74
2022/08/07 13:21:22;;;;;;;;;;;21.60;98.50;;;;;;5077566;28;20352;-74
2022/08/07 13:23:52;;;;;;;;;;;21.70;99.00;;;;;;5059559;28;19958;-75
2022/08/07 13:26:18;;;;;;;;;;;21.80;98.90;;;;;;5077347;28;19913;-74
2022/08/07 13:29:02;;;;;;;;;;;21.70;98.60;;;;;;5059709;28;19979;-75
2022/08/07 13:31:30;;;;;;;;;;;21.70;98.70;;;;;;5077597;28;20340;-74
2022/08/07 13:33:56;;;;;;;;;;;21.80;98.60;;;;;;5059426;28;20369;-73
2022/08/07 13:36:28;;;;;;;;;;;21.80;98.40;;;;;;5059494;28;19914;-74
2022/08/07 13:38:54;;;;;;;;;;;21.90;98.30;;;;;;5059460;28;19991;-74
2022/08/07 13:41:23;;;;;;;;;;;22.00;97.80;;;;;;5059507;28;20002;-73
2022/08/07 13:43:50;;;;;;;;;;;21.90;97.70;;;;;;5059270;28;19908;-74
2022/08/07 13:46:17;;;;;;;;;;;21.80;97.90;;;;;;5059555;28;20318;-72
2022/08/07 13:48:43;;;;;;;;;;;21.70;98.50;;;;;;5059322;28;19904;-71
2022/08/07 13:51:10;;;;;;;;;;;21.70;98.90;;;;;;5059278;28;20312;-71
2022/08/07 13:53:37;;;;;;;;;;;21.90;98.00;;;;;;5077119;28;19987;-72
2022/08/07 13:56:04;;;;;;;;;;;21.90;97.70;;;;;;5077056;28;19904;-71
2022/08/07 14:01:15;;;;;;;;;;;22.10;98.30;;;;;;5076708;28;19931;-72
2022/08/07 14:03:41;;;;;;;;;;;22.30;97.40;;;;;;5076931;28;19908;-71
2022/08/07 14:06:08;;;;;;;;;;;22.30;97.60;;;;;;5058528;28;19958;-72
2022/08/07 14:08:38;;;;;;;;;;;22.30;96.70;;;;;;5058686;28;19912;-71
2022/08/07 14:11:04;;;;;;;;;;;22.00;96.80;;;;;;5058859;28;20012;-72
2022/08/07 14:13:31;;;;;;;;;;;21.90;97.70;;;;;;5058526;28;19958;-72
2022/08/07 14:16:05;;;;;;;;;;;21.90;98.40;;;;;;5058307;28;19904;-69
2022/08/07 14:18:36;;;;;;;;;;;22.20;97.80;;;;;;5058485;28;19904;-68
2022/08/07 14:21:19;;;;;;;;;;;22.20;97.50;;;;;;5076338;28;19919;-69
2022/08/07 14:23:50;;;;;;;;;;;22.30;97.30;;;;;;5058462;28;19954;-71
2022/08/07 14:26:26;;;;;;;;;;;22.40;96.80;;;;;;5076949;28;19904;-71
2022/08/07 14:28:53;;;;;;;;;;;22.40;96.80;;;;;;5058348;28;20295;-72
2022/08/07 14:31:21;;;;;;;;;;;22.40;96.10;;;;;;5058255;28;19904;-72
2022/08/07 14:33:48;;;;;;;;;;;22.30;96.80;;;;;;5076137;28;19904;-72
2022/08/07 14:36:13;;;;;;;;;;;22.20;97.20;;;;;;5076302;28;19904;-72
2022/08/07 14:38:41;;;;;;;;;;;22.20;97.10;;;;;;5058127;28;19912;-71
2022/08/07 14:41:09;;;;;;;;;;;22.10;97.00;;;;;;5057933;28;20353;-72